sensor_id;sensor_type;location;lat;lon;timestamp;P1;durP1;ratioP1;P2;durP2;ratioP2
47335;SDS011;33068;51.990;5.926;2023-06-10T00:01:51;13.68;;;4.95;;
47335;SDS011;33068;51.990;5.926;2023-06-10T00:04:20;5.93;;;5.00;;
47335;SDS011;33068;51.990;5.926;2023-06-10T00:06:49;10.00;;;4.53;;
47335;SDS011;33068;51.990;5.926;2023-06-10T00:09:16;6.15;;;4.60;;
47335;SDS011;33068;51.990;5.926;2023-06-10T00:11:43;7.88;;;4.75;;
47335;SDS011;33068;51.990;5.926;2023-06-10T00:14:10;8.77;;;4.95;;
47335;SDS011;33068;51.990;5.926;2023-06-10T00:16:37;4.85;;;4.15;;
47335;SDS011;33068;51.990;5.926;2023-06-10T00:19:05;7.63;;;4.68;;
47335;SDS011;33068;51.990;5.926;2023-06-10T00:21:33;14.95;;;4.60;;
47335;SDS011;33068;51.990;5.926;2023-06-10T00:24:14;5.80;;;4.85;;
47335;SDS011;33068;51.990;5.926;2023-06-10T00:26:41;7.07;;;4.40;;
47335;SDS011;33068;51.990;5.926;2023-06-10T00:29:09;7.85;;;4.53;;
47335;SDS011;33068;51.990;5.926;2023-06-10T00:31:36;16.95;;;5.00;;
47335;SDS011;33068;51.990;5.926;2023-06-10T00:34:05;5.95;;;4.95;;
47335;SDS011;33068;51.990;5.926;2023-06-10T00:36:33;7.32;;;4.80;;
47335;SDS011;33068;51.990;5.926;2023-06-10T00:39:01;7.80;;;4.57;;
47335;SDS011;33068;51.990;5.926;2023-06-10T00:41:30;5.97;;;4.20;;
47335;SDS011;33068;51.990;5.926;2023-06-10T00:43:59;9.20;;;4.65;;
47335;SDS011;33068;51.990;5.926;2023-06-10T00:46:26;9.80;;;4.20;;
47335;SDS011;33068;51.990;5.926;2023-06-10T00:48:54;6.50;;;4.50;;
47335;SDS011;33068;51.990;5.926;2023-06-10T00:51:22;5.82;;;4.85;;
47335;SDS011;33068;51.990;5.926;2023-06-10T00:53:51;4.97;;;4.28;;
47335;SDS011;33068;51.990;5.926;2023-06-10T00:56:19;5.00;;;3.83;;
47335;SDS011;33068;51.990;5.926;2023-06-10T00:58:48;9.80;;;4.63;;
47335;SDS011;33068;51.990;5.926;2023-06-10T01:01:16;7.72;;;4.63;;
47335;SDS011;33068;51.990;5.926;2023-06-10T01:03:45;9.07;;;4.70;;
47335;SDS011;33068;51.990;5.926;2023-06-10T01:06:14;5.13;;;4.40;;
47335;SDS011;33068;51.990;5.926;2023-06-10T01:08:52;10.27;;;3.97;;
47335;SDS011;33068;51.990;5.926;2023-06-10T01:11:25;5.97;;;3.90;;
47335;SDS011;33068;51.990;5.926;2023-06-10T01:13:57;8.38;;;3.72;;
47335;SDS011;33068;51.990;5.926;2023-06-10T01:16:26;4.85;;;4.20;;
47335;SDS011;33068;51.990;5.926;2023-06-10T01:18:54;10.18;;;4.00;;
47335;SDS011;33068;51.990;5.926;2023-06-10T01:21:22;5.32;;;3.67;;
47335;SDS011;33068;51.990;5.926;2023-06-10T01:23:51;5.95;;;3.85;;
47335;SDS011;33068;51.990;5.926;2023-06-10T01:26:21;4.75;;;3.50;;
47335;SDS011;33068;51.990;5.926;2023-06-10T01:28:54;5.00;;;4.45;;
47335;SDS011;33068;51.990;5.926;2023-06-10T01:31:29;5.72;;;4.35;;
47335;SDS011;33068;51.990;5.926;2023-06-10T01:34:01;6.85;;;4.20;;
47335;SDS011;33068;51.990;5.926;2023-06-10T01:36:34;6.82;;;4.28;;
47335;SDS011;33068;51.990;5.926;2023-06-10T01:39:02;5.65;;;3.88;;
47335;SDS011;33068;51.990;5.926;2023-06-10T01:41:31;6.65;;;4.60;;
47335;SDS011;33068;51.990;5.926;2023-06-10T01:43:59;7.03;;;4.03;;
47335;SDS011;33068;51.990;5.926;2023-06-10T01:46:26;9.38;;;3.65;;
47335;SDS011;33068;51.990;5.926;2023-06-10T01:48:53;5.30;;;3.80;;
47335;SDS011;33068;51.990;5.926;2023-06-10T01:51:20;9.45;;;4.65;;
47335;SDS011;33068;51.990;5.926;2023-06-10T01:53:48;6.10;;;3.58;;
47335;SDS011;33068;51.990;5.926;2023-06-10T01:56:16;5.93;;;4.18;;
47335;SDS011;33068;51.990;5.926;2023-06-10T01:58:45;4.53;;;3.40;;
47335;SDS011;33068;51.990;5.926;2023-06-10T02:01:12;5.95;;;3.72;;
47335;SDS011;33068;51.990;5.926;2023-06-10T02:03:39;9.27;;;4.78;;
47335;SDS011;33068;51.990;5.926;2023-06-10T02:06:08;5.68;;;4.00;;
47335;SDS011;33068;51.990;5.926;2023-06-10T02:08:35;10.02;;;3.95;;
47335;SDS011;33068;51.990;5.926;2023-06-10T02:11:03;6.55;;;3.80;;
47335;SDS011;33068;51.990;5.926;2023-06-10T02:13:32;6.47;;;4.18;;
47335;SDS011;33068;51.990;5.926;2023-06-10T02:15:59;8.55;;;4.22;;
47335;SDS011;33068;51.990;5.926;2023-06-10T02:18:28;6.50;;;3.53;;
47335;SDS011;33068;51.990;5.926;2023-06-10T02:20:55;6.22;;;4.60;;
47335;SDS011;33068;51.990;5.926;2023-06-10T02:23:22;9.57;;;4.15;;
47335;SDS011;33068;51.990;5.926;2023-06-10T02:25:49;7.22;;;4.20;;
47335;SDS011;33068;51.990;5.926;2023-06-10T02:28:18;6.53;;;3.75;;
47335;SDS011;33068;51.990;5.926;2023-06-10T02:30:45;9.02;;;4.28;;
47335;SDS011;33068;51.990;5.926;2023-06-10T02:33:13;5.93;;;3.85;;
47335;SDS011;33068;51.990;5.926;2023-06-10T02:35:41;8.82;;;4.68;;
47335;SDS011;33068;51.990;5.926;2023-06-10T02:38:08;6.13;;;3.90;;
47335;SDS011;33068;51.990;5.926;2023-06-10T02:40:35;9.63;;;4.18;;
47335;SDS011;33068;51.990;5.926;2023-06-10T02:43:02;6.00;;;3.97;;
47335;SDS011;33068;51.990;5.926;2023-06-10T02:45:32;6.15;;;3.67;;
47335;SDS011;33068;51.990;5.926;2023-06-10T02:48:00;6.05;;;4.28;;
47335;SDS011;33068;51.990;5.926;2023-06-10T02:50:29;7.82;;;3.97;;
47335;SDS011;33068;51.990;5.926;2023-06-10T02:53:14;10.88;;;4.20;;
47335;SDS011;33068;51.990;5.926;2023-06-10T02:55:46;9.57;;;4.40;;
47335;SDS011;33068;51.990;5.926;2023-06-10T02:58:16;9.05;;;4.43;;
47335;SDS011;33068;51.990;5.926;2023-06-10T03:00:45;7.70;;;4.40;;
47335;SDS011;33068;51.990;5.926;2023-06-10T03:03:13;10.15;;;4.45;;
47335;SDS011;33068;51.990;5.926;2023-06-10T03:05:50;8.02;;;4.43;;
47335;SDS011;33068;51.990;5.926;2023-06-10T03:08:19;5.57;;;3.50;;
47335;SDS011;33068;51.990;5.926;2023-06-10T03:10:47;6.68;;;4.53;;
47335;SDS011;33068;51.990;5.926;2023-06-10T03:13:16;8.73;;;4.07;;
47335;SDS011;33068;51.990;5.926;2023-06-10T03:15:45;9.77;;;4.75;;
47335;SDS011;33068;51.990;5.926;2023-06-10T03:18:16;12.88;;;4.50;;
47335;SDS011;33068;51.990;5.926;2023-06-10T03:20:44;9.52;;;4.00;;
47335;SDS011;33068;51.990;5.926;2023-06-10T03:23:11;7.75;;;4.45;;
47335;SDS011;33068;51.990;5.926;2023-06-10T03:25:39;11.45;;;4.25;;
47335;SDS011;33068;51.990;5.926;2023-06-10T03:28:07;7.45;;;3.95;;
47335;SDS011;33068;51.990;5.926;2023-06-10T03:30:35;8.02;;;3.78;;
47335;SDS011;33068;51.990;5.926;2023-06-10T03:33:04;7.72;;;4.43;;
47335;SDS011;33068;51.990;5.926;2023-06-10T03:35:31;9.43;;;4.32;;
47335;SDS011;33068;51.990;5.926;2023-06-10T03:38:01;7.55;;;4.18;;
47335;SDS011;33068;51.990;5.926;2023-06-10T03:40:28;8.02;;;4.30;;
47335;SDS011;33068;51.990;5.926;2023-06-10T03:42:57;7.47;;;4.82;;
47335;SDS011;33068;51.990;5.926;2023-06-10T03:45:25;10.50;;;4.43;;
47335;SDS011;33068;51.990;5.926;2023-06-10T03:47:53;6.30;;;4.25;;
47335;SDS011;33068;51.990;5.926;2023-06-10T03:50:27;8.50;;;4.13;;
47335;SDS011;33068;51.990;5.926;2023-06-10T03:52:54;9.93;;;4.78;;
47335;SDS011;33068;51.990;5.926;2023-06-10T03:55:24;9.07;;;4.43;;
47335;SDS011;33068;51.990;5.926;2023-06-10T03:57:54;8.05;;;4.43;;
47335;SDS011;33068;51.990;5.926;2023-06-10T04:00:21;8.75;;;5.25;;
47335;SDS011;33068;51.990;5.926;2023-06-10T04:02:48;6.60;;;4.40;;
47335;SDS011;33068;51.990;5.926;2023-06-10T04:05:40;12.68;;;4.78;;
47335;SDS011;33068;51.990;5.926;2023-06-10T04:08:08;5.60;;;4.05;;
47335;SDS011;33068;51.990;5.926;2023-06-10T04:10:35;8.10;;;4.55;;
47335;SDS011;33068;51.990;5.926;2023-06-10T04:13:02;13.98;;;4.57;;
47335;SDS011;33068;51.990;5.926;2023-06-10T04:15:34;7.80;;;4.38;;
47335;SDS011;33068;51.990;5.926;2023-06-10T04:18:06;14.70;;;4.40;;
47335;SDS011;33068;51.990;5.926;2023-06-10T04:20:33;10.70;;;4.57;;
47335;SDS011;33068;51.990;5.926;2023-06-10T04:23:02;6.63;;;4.40;;
47335;SDS011;33068;51.990;5.926;2023-06-10T04:25:30;7.05;;;4.03;;
47335;SDS011;33068;51.990;5.926;2023-06-10T04:27:57;8.32;;;4.70;;
47335;SDS011;33068;51.990;5.926;2023-06-10T04:30:25;7.63;;;4.35;;
47335;SDS011;33068;51.990;5.926;2023-06-10T04:32:52;5.93;;;4.22;;
47335;SDS011;33068;51.990;5.926;2023-06-10T04:35:20;8.82;;;4.10;;
47335;SDS011;33068;51.990;5.926;2023-06-10T04:37:48;10.52;;;4.55;;
47335;SDS011;33068;51.990;5.926;2023-06-10T04:40:17;7.82;;;4.55;;
47335;SDS011;33068;51.990;5.926;2023-06-10T04:42:46;12.27;;;5.38;;
47335;SDS011;33068;51.990;5.926;2023-06-10T04:45:13;8.23;;;5.05;;
47335;SDS011;33068;51.990;5.926;2023-06-10T04:47:41;12.20;;;4.90;;
47335;SDS011;33068;51.990;5.926;2023-06-10T04:50:10;8.48;;;4.63;;
47335;SDS011;33068;51.990;5.926;2023-06-10T04:52:37;7.82;;;4.47;;
47335;SDS011;33068;51.990;5.926;2023-06-10T04:55:07;12.68;;;4.90;;
47335;SDS011;33068;51.990;5.926;2023-06-10T04:57:36;7.45;;;3.90;;
47335;SDS011;33068;51.990;5.926;2023-06-10T05:00:03;5.65;;;3.90;;
47335;SDS011;33068;51.990;5.926;2023-06-10T05:02:32;8.95;;;4.68;;
47335;SDS011;33068;51.990;5.926;2023-06-10T05:04:59;7.63;;;4.50;;
47335;SDS011;33068;51.990;5.926;2023-06-10T05:07:27;9.68;;;4.60;;
47335;SDS011;33068;51.990;5.926;2023-06-10T05:09:54;8.73;;;4.38;;
47335;SDS011;33068;51.990;5.926;2023-06-10T05:12:21;6.55;;;4.57;;
47335;SDS011;33068;51.990;5.926;2023-06-10T05:14:50;6.32;;;4.40;;
47335;SDS011;33068;51.990;5.926;2023-06-10T05:17:17;11.52;;;4.90;;
47335;SDS011;33068;51.990;5.926;2023-06-10T05:19:44;9.25;;;4.35;;
47335;SDS011;33068;51.990;5.926;2023-06-10T05:22:12;6.47;;;4.13;;
47335;SDS011;33068;51.990;5.926;2023-06-10T05:24:41;8.20;;;4.22;;
47335;SDS011;33068;51.990;5.926;2023-06-10T05:27:09;11.60;;;4.78;;
47335;SDS011;33068;51.990;5.926;2023-06-10T05:29:36;8.15;;;4.68;;
47335;SDS011;33068;51.990;5.926;2023-06-10T05:32:06;9.23;;;5.10;;
47335;SDS011;33068;51.990;5.926;2023-06-10T05:34:33;6.85;;;4.22;;
47335;SDS011;33068;51.990;5.926;2023-06-10T05:37:00;8.57;;;4.63;;
47335;SDS011;33068;51.990;5.926;2023-06-10T05:39:28;8.23;;;4.85;;
47335;SDS011;33068;51.990;5.926;2023-06-10T05:41:55;8.02;;;3.75;;
47335;SDS011;33068;51.990;5.926;2023-06-10T05:44:24;7.93;;;4.38;;
47335;SDS011;33068;51.990;5.926;2023-06-10T05:46:51;9.80;;;5.03;;
47335;SDS011;33068;51.990;5.926;2023-06-10T05:49:19;9.07;;;4.43;;
47335;SDS011;33068;51.990;5.926;2023-06-10T05:51:46;11.63;;;4.10;;
47335;SDS011;33068;51.990;5.926;2023-06-10T05:54:14;10.02;;;4.80;;
47335;SDS011;33068;51.990;5.926;2023-06-10T05:56:41;6.15;;;3.95;;
47335;SDS011;33068;51.990;5.926;2023-06-10T05:59:08;5.43;;;4.00;;
47335;SDS011;33068;51.990;5.926;2023-06-10T06:01:35;10.18;;;4.18;;
47335;SDS011;33068;51.990;5.926;2023-06-10T06:04:02;9.25;;;3.78;;
47335;SDS011;33068;51.990;5.926;2023-06-10T06:06:31;7.30;;;3.72;;
47335;SDS011;33068;51.990;5.926;2023-06-10T06:08:58;6.18;;;4.28;;
47335;SDS011;33068;51.990;5.926;2023-06-10T06:11:25;7.78;;;4.45;;
47335;SDS011;33068;51.990;5.926;2023-06-10T06:13:52;6.10;;;3.80;;
47335;SDS011;33068;51.990;5.926;2023-06-10T06:16:19;5.63;;;4.00;;
47335;SDS011;33068;51.990;5.926;2023-06-10T06:18:46;7.95;;;4.43;;
47335;SDS011;33068;51.990;5.926;2023-06-10T06:21:13;8.50;;;4.40;;
47335;SDS011;33068;51.990;5.926;2023-06-10T06:23:42;7.28;;;4.05;;
47335;SDS011;33068;51.990;5.926;2023-06-10T06:26:09;7.22;;;4.28;;
47335;SDS011;33068;51.990;5.926;2023-06-10T06:28:36;7.60;;;4.30;;
47335;SDS011;33068;51.990;5.926;2023-06-10T06:31:03;8.75;;;3.95;;
47335;SDS011;33068;51.990;5.926;2023-06-10T06:33:30;5.10;;;3.58;;
47335;SDS011;33068;51.990;5.926;2023-06-10T06:35:58;7.25;;;4.10;;
47335;SDS011;33068;51.990;5.926;2023-06-10T06:38:25;5.25;;;3.92;;
47335;SDS011;33068;51.990;5.926;2023-06-10T06:40:54;9.77;;;3.58;;
47335;SDS011;33068;51.990;5.926;2023-06-10T06:43:21;7.75;;;3.80;;
47335;SDS011;33068;51.990;5.926;2023-06-10T06:46:02;10.65;;;4.35;;
47335;SDS011;33068;51.990;5.926;2023-06-10T06:48:29;8.30;;;3.75;;
47335;SDS011;33068;51.990;5.926;2023-06-10T06:50:56;9.98;;;3.92;;
47335;SDS011;33068;51.990;5.926;2023-06-10T06:53:23;6.28;;;3.22;;
47335;SDS011;33068;51.990;5.926;2023-06-10T06:55:51;10.50;;;3.85;;
47335;SDS011;33068;51.990;5.926;2023-06-10T06:58:19;11.30;;;3.92;;
47335;SDS011;33068;51.990;5.926;2023-06-10T07:00:46;5.25;;;3.47;;
47335;SDS011;33068;51.990;5.926;2023-06-10T07:03:13;6.55;;;3.60;;
47335;SDS011;33068;51.990;5.926;2023-06-10T07:05:40;7.60;;;3.53;;
47335;SDS011;33068;51.990;5.926;2023-06-10T07:08:09;12.35;;;3.85;;
47335;SDS011;33068;51.990;5.926;2023-06-10T07:10:37;7.40;;;4.20;;
47335;SDS011;33068;51.990;5.926;2023-06-10T07:13:04;5.35;;;3.40;;
47335;SDS011;33068;51.990;5.926;2023-06-10T07:15:33;9.70;;;3.88;;
47335;SDS011;33068;51.990;5.926;2023-06-10T07:18:01;5.85;;;3.85;;
47335;SDS011;33068;51.990;5.926;2023-06-10T07:20:28;9.52;;;3.60;;
47335;SDS011;33068;51.990;5.926;2023-06-10T07:22:55;5.93;;;3.47;;
47335;SDS011;33068;51.990;5.926;2023-06-10T07:25:22;6.40;;;3.70;;
47335;SDS011;33068;51.990;5.926;2023-06-10T07:27:52;7.55;;;4.28;;
47335;SDS011;33068;51.990;5.926;2023-06-10T07:30:19;6.82;;;3.40;;
47335;SDS011;33068;51.990;5.926;2023-06-10T07:32:48;7.72;;;3.70;;
47335;SDS011;33068;51.990;5.926;2023-06-10T07:35:16;7.03;;;3.60;;
47335;SDS011;33068;51.990;5.926;2023-06-10T07:37:44;4.55;;;3.55;;
47335;SDS011;33068;51.990;5.926;2023-06-10T07:40:11;8.20;;;3.35;;
47335;SDS011;33068;51.990;5.926;2023-06-10T07:42:38;5.68;;;3.33;;
47335;SDS011;33068;51.990;5.926;2023-06-10T07:45:06;8.18;;;3.08;;
47335;SDS011;33068;51.990;5.926;2023-06-10T07:47:34;5.88;;;3.25;;
47335;SDS011;33068;51.990;5.926;2023-06-10T07:50:02;4.93;;;3.42;;
47335;SDS011;33068;51.990;5.926;2023-06-10T07:52:30;5.45;;;3.28;;
47335;SDS011;33068;51.990;5.926;2023-06-10T07:54:57;7.07;;;3.20;;
47335;SDS011;33068;51.990;5.926;2023-06-10T07:57:24;8.93;;;3.53;;
47335;SDS011;33068;51.990;5.926;2023-06-10T07:59:51;6.60;;;3.22;;
47335;SDS011;33068;51.990;5.926;2023-06-10T08:02:20;7.03;;;3.58;;
47335;SDS011;33068;51.990;5.926;2023-06-10T08:04:47;5.43;;;3.10;;
47335;SDS011;33068;51.990;5.926;2023-06-10T08:10:01;7.55;;;3.40;;
47335;SDS011;33068;51.990;5.926;2023-06-10T08:12:29;6.13;;;2.90;;
47335;SDS011;33068;51.990;5.926;2023-06-10T08:14:56;7.30;;;3.35;;
47335;SDS011;33068;51.990;5.926;2023-06-10T08:17:23;5.38;;;3.08;;
47335;SDS011;33068;51.990;5.926;2023-06-10T08:19:51;9.02;;;2.50;;
47335;SDS011;33068;51.990;5.926;2023-06-10T08:22:18;9.63;;;3.40;;
47335;SDS011;33068;51.990;5.926;2023-06-10T08:24:46;4.18;;;2.45;;
47335;SDS011;33068;51.990;5.926;2023-06-10T08:27:14;4.13;;;2.80;;
47335;SDS011;33068;51.990;5.926;2023-06-10T08:29:41;13.13;;;4.32;;
47335;SDS011;33068;51.990;5.926;2023-06-10T08:32:08;14.48;;;5.15;;
47335;SDS011;33068;51.990;5.926;2023-06-10T08:34:35;15.90;;;3.55;;
47335;SDS011;33068;51.990;5.926;2023-06-10T08:37:03;7.60;;;3.05;;
47335;SDS011;33068;51.990;5.926;2023-06-10T08:39:31;10.05;;;2.83;;
47335;SDS011;33068;51.990;5.926;2023-06-10T08:42:04;5.45;;;2.83;;
47335;SDS011;33068;51.990;5.926;2023-06-10T08:44:37;6.28;;;2.40;;
47335;SDS011;33068;51.990;5.926;2023-06-10T08:47:08;4.93;;;3.22;;
47335;SDS011;33068;51.990;5.926;2023-06-10T08:49:41;10.70;;;3.63;;
47335;SDS011;33068;51.990;5.926;2023-06-10T08:52:12;4.35;;;2.78;;
47335;SDS011;33068;51.990;5.926;2023-06-10T08:54:42;4.65;;;2.70;;
47335;SDS011;33068;51.990;5.926;2023-06-10T08:57:16;5.55;;;3.00;;
47335;SDS011;33068;51.990;5.926;2023-06-10T08:59:45;5.70;;;2.92;;
47335;SDS011;33068;51.990;5.926;2023-06-10T09:02:13;4.43;;;2.95;;
47335;SDS011;33068;51.990;5.926;2023-06-10T09:04:46;7.10;;;2.60;;
47335;SDS011;33068;51.990;5.926;2023-06-10T09:07:13;7.00;;;2.92;;
47335;SDS011;33068;51.990;5.926;2023-06-10T09:09:43;5.68;;;2.80;;
47335;SDS011;33068;51.990;5.926;2023-06-10T09:12:11;5.50;;;3.28;;
47335;SDS011;33068;51.990;5.926;2023-06-10T09:14:41;4.07;;;2.85;;
47335;SDS011;33068;51.990;5.926;2023-06-10T09:17:08;4.05;;;2.72;;
47335;SDS011;33068;51.990;5.926;2023-06-10T09:19:37;7.85;;;3.80;;
47335;SDS011;33068;51.990;5.926;2023-06-10T09:22:06;5.38;;;2.95;;
47335;SDS011;33068;51.990;5.926;2023-06-10T09:24:33;7.07;;;2.78;;
47335;SDS011;33068;51.990;5.926;2023-06-10T09:27:02;4.85;;;2.58;;
47335;SDS011;33068;51.990;5.926;2023-06-10T09:29:30;5.80;;;2.70;;
47335;SDS011;33068;51.990;5.926;2023-06-10T09:32:15;5.82;;;2.75;;
47335;SDS011;33068;51.990;5.926;2023-06-10T09:34:53;7.57;;;2.63;;
47335;SDS011;33068;51.990;5.926;2023-06-10T09:37:23;8.60;;;2.83;;
47335;SDS011;33068;51.990;5.926;2023-06-10T09:40:03;3.45;;;2.60;;
47335;SDS011;33068;51.990;5.926;2023-06-10T09:42:34;5.25;;;2.72;;
47335;SDS011;33068;51.990;5.926;2023-06-10T09:45:02;8.10;;;3.05;;
47335;SDS011;33068;51.990;5.926;2023-06-10T09:47:30;5.22;;;3.22;;
47335;SDS011;33068;51.990;5.926;2023-06-10T09:49:57;4.18;;;2.30;;
47335;SDS011;33068;51.990;5.926;2023-06-10T09:52:26;4.07;;;2.42;;
47335;SDS011;33068;51.990;5.926;2023-06-10T09:54:58;8.95;;;2.47;;
47335;SDS011;33068;51.990;5.926;2023-06-10T09:57:30;4.10;;;2.40;;
47335;SDS011;33068;51.990;5.926;2023-06-10T09:59:58;4.63;;;2.72;;
47335;SDS011;33068;51.990;5.926;2023-06-10T10:02:44;3.92;;;2.55;;
47335;SDS011;33068;51.990;5.926;2023-06-10T10:05:13;3.97;;;2.60;;
47335;SDS011;33068;51.990;5.926;2023-06-10T10:07:41;3.15;;;2.20;;
47335;SDS011;33068;51.990;5.926;2023-06-10T10:10:17;4.70;;;2.13;;
47335;SDS011;33068;51.990;5.926;2023-06-10T10:12:46;3.67;;;2.38;;
47335;SDS011;33068;51.990;5.926;2023-06-10T10:15:15;5.38;;;2.25;;
47335;SDS011;33068;51.990;5.926;2023-06-10T10:17:46;4.90;;;2.78;;
47335;SDS011;33068;51.990;5.926;2023-06-10T10:20:20;3.47;;;2.53;;
47335;SDS011;33068;51.990;5.926;2023-06-10T10:22:51;7.88;;;2.40;;
47335;SDS011;33068;51.990;5.926;2023-06-10T10:25:23;3.95;;;2.40;;
47335;SDS011;33068;51.990;5.926;2023-06-10T10:27:54;5.13;;;2.78;;
47335;SDS011;33068;51.990;5.926;2023-06-10T10:30:25;6.72;;;2.88;;
47335;SDS011;33068;51.990;5.926;2023-06-10T10:32:56;3.67;;;2.38;;
47335;SDS011;33068;51.990;5.926;2023-06-10T10:35:25;5.20;;;2.45;;
47335;SDS011;33068;51.990;5.926;2023-06-10T10:37:53;6.18;;;2.40;;
47335;SDS011;33068;51.990;5.926;2023-06-10T10:40:21;6.40;;;2.05;;
47335;SDS011;33068;51.990;5.926;2023-06-10T10:42:50;3.10;;;1.98;;
47335;SDS011;33068;51.990;5.926;2023-06-10T10:45:18;3.85;;;2.10;;
47335;SDS011;33068;51.990;5.926;2023-06-10T10:47:49;5.72;;;2.10;;
47335;SDS011;33068;51.990;5.926;2023-06-10T10:50:20;3.58;;;1.88;;
47335;SDS011;33068;51.990;5.926;2023-06-10T10:52:52;6.35;;;2.33;;
47335;SDS011;33068;51.990;5.926;2023-06-10T10:55:21;7.18;;;2.47;;
47335;SDS011;33068;51.990;5.926;2023-06-10T10:57:55;4.95;;;1.65;;
47335;SDS011;33068;51.990;5.926;2023-06-10T11:00:24;3.97;;;2.55;;
47335;SDS011;33068;51.990;5.926;2023-06-10T11:02:59;3.55;;;2.20;;
47335;SDS011;33068;51.990;5.926;2023-06-10T11:05:35;4.80;;;2.47;;
47335;SDS011;33068;51.990;5.926;2023-06-10T11:08:04;5.35;;;1.85;;
47335;SDS011;33068;51.990;5.926;2023-06-10T11:10:33;6.35;;;1.77;;
47335;SDS011;33068;51.990;5.926;2023-06-10T11:13:05;3.10;;;2.60;;
47335;SDS011;33068;51.990;5.926;2023-06-10T11:15:34;8.40;;;2.38;;
47335;SDS011;33068;51.990;5.926;2023-06-10T11:20:52;2.72;;;2.00;;
47335;SDS011;33068;51.990;5.926;2023-06-10T11:26:12;3.55;;;2.47;;
47335;SDS011;33068;51.990;5.926;2023-06-10T11:29:06;2.58;;;2.08;;
47335;SDS011;33068;51.990;5.926;2023-06-10T11:31:38;4.53;;;1.98;;
47335;SDS011;33068;51.990;5.926;2023-06-10T11:34:07;2.75;;;2.03;;
47335;SDS011;33068;51.990;5.926;2023-06-10T11:36:37;7.32;;;2.45;;
47335;SDS011;33068;51.990;5.926;2023-06-10T11:39:07;5.63;;;2.30;;
47335;SDS011;33068;51.990;5.926;2023-06-10T11:41:36;2.47;;;2.00;;
47335;SDS011;33068;51.990;5.926;2023-06-10T11:44:05;4.80;;;2.10;;
47335;SDS011;33068;51.990;5.926;2023-06-10T11:46:35;3.95;;;2.47;;
47335;SDS011;33068;51.990;5.926;2023-06-10T11:49:03;6.72;;;2.20;;
47335;SDS011;33068;51.990;5.926;2023-06-10T11:51:32;5.15;;;2.03;;
47335;SDS011;33068;51.990;5.926;2023-06-10T11:54:02;8.63;;;2.63;;
47335;SDS011;33068;51.990;5.926;2023-06-10T11:56:30;3.47;;;2.20;;
47335;SDS011;33068;51.990;5.926;2023-06-10T11:58:59;4.47;;;2.60;;
47335;SDS011;33068;51.990;5.926;2023-06-10T12:01:29;4.18;;;2.10;;
47335;SDS011;33068;51.990;5.926;2023-06-10T12:03:58;5.90;;;1.98;;
47335;SDS011;33068;51.990;5.926;2023-06-10T12:06:26;2.47;;;2.00;;
47335;SDS011;33068;51.990;5.926;2023-06-10T12:08:54;3.58;;;2.30;;
47335;SDS011;33068;51.990;5.926;2023-06-10T12:11:23;4.70;;;2.88;;
47335;SDS011;33068;51.990;5.926;2023-06-10T12:13:50;2.40;;;2.17;;
47335;SDS011;33068;51.990;5.926;2023-06-10T12:16:17;3.95;;;2.42;;
47335;SDS011;33068;51.990;5.926;2023-06-10T12:18:45;2.95;;;2.20;;
47335;SDS011;33068;51.990;5.926;2023-06-10T12:21:20;3.60;;;2.53;;
47335;SDS011;33068;51.990;5.926;2023-06-10T12:24:04;2.80;;;2.13;;
47335;SDS011;33068;51.990;5.926;2023-06-10T12:26:41;4.20;;;2.05;;
47335;SDS011;33068;51.990;5.926;2023-06-10T12:31:55;5.07;;;2.10;;
47335;SDS011;33068;51.990;5.926;2023-06-10T12:34:28;2.97;;;2.33;;
47335;SDS011;33068;51.990;5.926;2023-06-10T12:36:56;3.60;;;2.33;;
47335;SDS011;33068;51.990;5.926;2023-06-10T12:39:23;3.00;;;2.50;;
47335;SDS011;33068;51.990;5.926;2023-06-10T12:41:52;3.85;;;2.03;;
47335;SDS011;33068;51.990;5.926;2023-06-10T12:44:27;3.45;;;2.60;;
47335;SDS011;33068;51.990;5.926;2023-06-10T12:46:58;2.85;;;2.53;;
47335;SDS011;33068;51.990;5.926;2023-06-10T12:49:25;3.70;;;2.28;;
47335;SDS011;33068;51.990;5.926;2023-06-10T12:51:53;3.38;;;1.90;;
47335;SDS011;33068;51.990;5.926;2023-06-10T12:54:20;9.13;;;2.80;;
47335;SDS011;33068;51.990;5.926;2023-06-10T12:56:48;3.85;;;2.63;;
47335;SDS011;33068;51.990;5.926;2023-06-10T12:59:17;12.73;;;3.42;;
47335;SDS011;33068;51.990;5.926;2023-06-10T13:01:44;6.55;;;2.67;;
47335;SDS011;33068;51.990;5.926;2023-06-10T13:04:16;4.65;;;2.78;;
47335;SDS011;33068;51.990;5.926;2023-06-10T13:06:43;5.18;;;2.58;;
47335;SDS011;33068;51.990;5.926;2023-06-10T13:09:12;3.55;;;2.58;;
47335;SDS011;33068;51.990;5.926;2023-06-10T13:11:40;4.18;;;2.55;;
47335;SDS011;33068;51.990;5.926;2023-06-10T13:14:08;6.18;;;3.03;;
47335;SDS011;33068;51.990;5.926;2023-06-10T13:16:38;3.38;;;2.25;;
47335;SDS011;33068;51.990;5.926;2023-06-10T13:19:05;2.90;;;2.28;;
47335;SDS011;33068;51.990;5.926;2023-06-10T13:21:32;3.80;;;2.40;;
47335;SDS011;33068;51.990;5.926;2023-06-10T13:24:00;4.65;;;2.53;;
47335;SDS011;33068;51.990;5.926;2023-06-10T13:26:28;7.35;;;2.53;;
47335;SDS011;33068;51.990;5.926;2023-06-10T13:28:55;2.97;;;2.50;;
47335;SDS011;33068;51.990;5.926;2023-06-10T13:31:22;3.00;;;2.55;;
47335;SDS011;33068;51.990;5.926;2023-06-10T13:33:51;3.92;;;2.83;;
47335;SDS011;33068;51.990;5.926;2023-06-10T13:36:18;7.45;;;2.92;;
47335;SDS011;33068;51.990;5.926;2023-06-10T13:38:45;4.88;;;2.65;;
47335;SDS011;33068;51.990;5.926;2023-06-10T13:41:13;4.90;;;2.55;;
47335;SDS011;33068;51.990;5.926;2023-06-10T13:43:40;4.68;;;2.30;;
47335;SDS011;33068;51.990;5.926;2023-06-10T13:46:07;4.70;;;2.50;;
47335;SDS011;33068;51.990;5.926;2023-06-10T13:48:35;3.63;;;2.60;;
47335;SDS011;33068;51.990;5.926;2023-06-10T13:51:06;2.33;;;2.08;;
47335;SDS011;33068;51.990;5.926;2023-06-10T13:53:34;3.97;;;2.35;;
47335;SDS011;33068;51.990;5.926;2023-06-10T13:56:02;5.50;;;2.58;;
47335;SDS011;33068;51.990;5.926;2023-06-10T13:58:29;8.52;;;2.67;;
47335;SDS011;33068;51.990;5.926;2023-06-10T14:00:56;6.07;;;2.97;;
47335;SDS011;33068;51.990;5.926;2023-06-10T14:03:24;4.97;;;2.50;;
47335;SDS011;33068;51.990;5.926;2023-06-10T14:05:51;3.10;;;2.30;;
47335;SDS011;33068;51.990;5.926;2023-06-10T14:08:19;7.43;;;2.97;;
47335;SDS011;33068;51.990;5.926;2023-06-10T14:10:47;5.03;;;2.72;;
47335;SDS011;33068;51.990;5.926;2023-06-10T14:13:15;4.43;;;2.42;;
47335;SDS011;33068;51.990;5.926;2023-06-10T14:15:43;3.40;;;2.30;;
47335;SDS011;33068;51.990;5.926;2023-06-10T14:18:10;2.67;;;2.42;;
47335;SDS011;33068;51.990;5.926;2023-06-10T14:20:37;3.45;;;2.35;;
47335;SDS011;33068;51.990;5.926;2023-06-10T14:23:05;4.50;;;2.25;;
47335;SDS011;33068;51.990;5.926;2023-06-10T14:25:33;6.47;;;2.75;;
47335;SDS011;33068;51.990;5.926;2023-06-10T14:28:00;4.28;;;2.88;;
47335;SDS011;33068;51.990;5.926;2023-06-10T14:30:27;6.28;;;2.58;;
47335;SDS011;33068;51.990;5.926;2023-06-10T14:32:54;11.82;;;2.85;;
47335;SDS011;33068;51.990;5.926;2023-06-10T14:35:21;3.80;;;2.80;;
47335;SDS011;33068;51.990;5.926;2023-06-10T14:37:49;4.75;;;2.58;;
47335;SDS011;33068;51.990;5.926;2023-06-10T14:40:16;6.03;;;2.53;;
47335;SDS011;33068;51.990;5.926;2023-06-10T14:42:44;2.75;;;2.55;;
47335;SDS011;33068;51.990;5.926;2023-06-10T14:45:11;5.35;;;2.92;;
47335;SDS011;33068;51.990;5.926;2023-06-10T14:47:40;10.07;;;2.72;;
47335;SDS011;33068;51.990;5.926;2023-06-10T14:50:07;3.53;;;2.00;;
47335;SDS011;33068;51.990;5.926;2023-06-10T14:52:35;3.38;;;2.53;;
47335;SDS011;33068;51.990;5.926;2023-06-10T14:55:02;2.92;;;2.65;;
47335;SDS011;33068;51.990;5.926;2023-06-10T14:57:30;3.90;;;2.60;;
47335;SDS011;33068;51.990;5.926;2023-06-10T14:59:58;4.03;;;2.47;;
47335;SDS011;33068;51.990;5.926;2023-06-10T15:02:26;2.53;;;2.10;;
47335;SDS011;33068;51.990;5.926;2023-06-10T15:04:53;5.07;;;2.50;;
47335;SDS011;33068;51.990;5.926;2023-06-10T15:07:20;4.50;;;2.63;;